Time;durP1;ratioP1;P1;durP2;ratioP2;P2;SDS_P1;SDS_P2;PMS_P1;PMS_P2;Temp;Humidity;BMP_temperature;BMP_pressure;BME280_temperature;BME280_humidity;BME280_pressure;Samples;Min_cycle;Max_cycle;Signal;HPM_P1;HPM_P2
2021/09/11 00:01:48;;;;;;;5.28;3.38;;;18.00;99.90;;;16.73;100.00;101110.75;2568057;30;137304;-40
2021/09/11 00:04:16;;;;;;;6.03;3.78;;;18.00;99.90;;;16.69;100.00;101109.53;2567628;30;137033;-40
2021/09/11 00:06:43;;;;;;;;;;;18.00;99.90;;;16.66;100.00;101112.78;2568779;30;139036;-40
2021/09/11 00:09:16;;;;;;;5.30;3.20;;;18.00;99.90;;;16.61;100.00;101109.94;2568438;30;136751;-40
2021/09/11 00:11:43;;;;;;;;;;;17.90;99.90;;;16.59;100.00;101103.84;2567398;30;138292;-40
2021/09/11 00:14:11;;;;;;;6.80;4.43;;;17.90;99.90;;;16.58;100.00;101110.44;2568168;30;137450;-43
2021/09/11 00:16:38;;;;;;;;;;;17.90;99.90;;;16.53;100.00;101103.75;2567964;30;138929;-40
2021/09/11 00:19:06;;;;;;;6.35;4.45;;;17.80;99.90;;;16.58;100.00;101108.53;2568031;30;136859;-39
2021/09/11 00:21:33;;;;;;;9.13;4.60;;;17.90;99.90;;;16.59;100.00;101103.84;2568021;30;138137;-40
2021/09/11 00:24:04;;;;;;;8.82;5.35;;;17.90;99.90;;;16.56;100.00;101104.34;2567970;30;137455;-40
2021/09/11 00:26:32;;;;;;;8.90;4.55;;;17.90;99.90;;;16.52;100.00;101102.09;2567362;30;137532;-40
2021/09/11 00:28:59;;;;;;;7.32;4.75;;;17.80;99.90;;;16.54;100.00;101113.69;2567041;30;138288;-42
2021/09/11 00:31:27;;;;;;;6.95;4.90;;;17.80;99.90;;;16.56;100.00;101107.09;2567368;30;137163;-40
2021/09/11 00:33:54;;;;;;;;;;;17.80;99.90;;;16.54;100.00;101112.84;2568849;30;136958;-40
2021/09/11 00:36:22;;;;;;;6.45;3.90;;;17.80;99.90;;;16.52;100.00;101121.34;2569451;30;137471;-40
2021/09/11 00:38:49;;;;;;;8.43;4.35;;;17.80;99.90;;;16.52;100.00;101107.59;2567317;30;136729;-40
2021/09/11 00:41:20;;;;;;;7.35;4.13;;;17.80;99.90;;;16.62;100.00;101114.38;2568030;30;137504;-42
2021/09/11 00:43:49;;;;;;;;;;;17.90;99.90;;;16.61;100.00;101118.19;2566562;30;137389;-40
2021/09/11 00:46:18;;;;;;;5.68;3.35;;;17.90;99.90;;;16.61;100.00;101116.31;2565549;30;138663;-40
2021/09/11 00:48:46;;;;;;;4.85;3.30;;;17.90;99.90;;;16.63;100.00;101118.78;2567320;30;137430;-40
2021/09/11 00:51:15;;;;;;;6.60;3.30;;;17.90;99.90;;;16.65;100.00;101113.88;2567466;30;137534;-40
2021/09/11 00:53:43;;;;;;;4.63;2.88;;;17.90;99.90;;;16.62;100.00;101111.59;2567410;30;137627;-40
2021/09/11 00:56:13;;;;;;;4.90;3.08;;;17.90;99.90;;;16.64;100.00;101115.81;2572778;30;138120;-40
2021/09/11 00:58:40;;;;;;;4.45;3.10;;;17.90;99.90;;;16.61;100.00;101126.47;2570364;30;137763;-40
2021/09/11 01:01:08;;;;;;;;;;;17.90;99.90;;;16.60;100.00;101122.03;2569463;30;138368;-40
2021/09/11 01:03:36;;;;;;;6.50;2.88;;;17.90;99.90;;;16.58;100.00;101136.06;2567989;30;137407;-40
2021/09/11 01:06:04;;;;;;;6.18;3.67;;;17.90;99.90;;;16.64;100.00;101123.22;2569545;30;138320;-40
2021/09/11 01:08:33;;;;;;;5.57;3.13;;;17.90;99.90;;;16.70;100.00;101133.25;2568777;30;137466;-40
2021/09/11 01:11:01;;;;;;;6.13;3.30;;;18.00;99.90;;;16.75;100.00;101127.84;2567641;30;138555;-42
2021/09/11 01:13:29;;;;;;;5.95;3.30;;;18.00;99.90;;;16.79;100.00;101133.69;2571598;30;138181;-40
2021/09/11 01:15:58;;;;;;;5.22;3.50;;;18.00;99.90;;;16.78;100.00;101127.34;2567806;30;137129;-40
2021/09/11 01:18:27;;;;;;;7.18;3.38;;;18.10;99.90;;;16.90;100.00;101134.72;2568659;30;136957;-40
2021/09/11 01:20:55;;;;;;;5.85;3.42;;;18.10;99.90;;;16.93;100.00;101142.47;2567813;30;137257;-40
2021/09/11 01:23:24;;;;;;;5.93;3.78;;;18.20;99.90;;;16.94;100.00;101139.50;2568983;30;137404;-40
2021/09/11 01:25:52;;;;;;;5.47;3.58;;;18.10;99.90;;;16.98;100.00;101142.63;2567924;30;137235;-40
2021/09/11 01:28:21;;;;;;;5.85;3.90;;;18.20;99.90;;;17.02;100.00;101138.28;2571641;30;137819;-40
2021/09/11 01:30:49;;;;;;;8.85;4.50;;;18.30;99.90;;;17.04;100.00;101144.38;2570082;30;137190;-41
2021/09/11 01:33:17;;;;;;;7.63;5.60;;;;;;;17.07;100.00;101135.63;2568817;30;138463;-40
2021/09/11 01:35:44;;;;;;;9.50;5.88;;;18.30;99.90;;;17.11;100.00;101138.72;2569635;30;138102;-41
2021/09/11 01:38:12;;;;;;;13.15;7.30;;;18.30;99.90;;;17.10;100.00;101143.38;2568715;30;137430;-40
2021/09/11 01:40:39;;;;;;;13.75;9.32;;;18.30;99.90;;;17.14;100.00;101137.38;2567872;30;138791;-40
2021/09/11 01:43:07;;;;;;;13.25;9.02;;;18.40;99.90;;;17.13;100.00;101132.94;2570879;30;137613;-40
2021/09/11 01:45:34;;;;;;;13.88;9.15;;;18.40;99.90;;;17.15;100.00;101136.28;2567329;30;138144;-40
2021/09/11 01:48:02;;;;;;;15.02;9.90;;;18.40;99.90;;;17.15;100.00;101139.91;2569687;30;136614;-40
2021/09/11 01:50:30;;;;;;;13.20;9.13;;;18.40;99.90;;;17.09;100.00;101144.47;2565563;30;137622;-40
2021/09/11 01:52:58;;;;;;;13.55;9.35;;;18.30;99.90;;;17.02;100.00;101132.78;2568071;30;136891;-40
2021/09/11 01:55:25;;;;;;;;;;;18.30;99.90;;;16.95;100.00;101137.56;2567914;30;138421;-40
2021/09/11 01:57:53;;;;;;;12.95;7.82;;;18.30;99.90;;;16.87;100.00;101143.47;2569202;30;136712;-41
2021/09/11 02:00:20;;;;;;;10.48;7.72;;;18.20;99.90;;;16.77;100.00;101147.72;2568149;30;139013;-40
2021/09/11 02:02:48;;;;;;;11.70;7.72;;;18.10;99.90;;;16.68;100.00;101154.69;2573051;30;137018;-40
2021/09/11 02:05:17;;;;;;;10.55;7.45;;;18.00;99.90;;;16.61;100.00;101141.09;2568514;30;138492;-40
2021/09/11 18:58:01;;;;;;;4.72;3.50;;;19.00;99.90;;;17.88;85.91;101417.00;2554639;30;137849;-40
2021/09/11 19:00:28;;;;;;;8.25;4.50;;;19.10;99.90;;;17.92;85.77;101416.25;2571576;30;136965;-40
2021/09/11 19:02:56;;;;;;;7.03;3.95;;;19.10;99.90;;;17.87;86.49;101420.84;2572509;30;137057;-42
2021/09/11 19:05:26;;;;;;;6.88;4.20;;;19.10;99.90;;;17.80;87.01;101421.00;2569125;30;136961;-40
2021/09/11 19:07:57;;;;;;;6.10;3.95;;;19.10;99.90;;;17.78;87.73;101417.66;2571677;30;138311;-40
2021/09/11 19:10:25;;;;;;;6.00;4.60;;;19.00;99.90;;;17.79;88.30;101419.34;2572347;30;137304;-39
2021/09/11 19:12:53;;;;;;;8.75;4.88;;;19.00;99.90;;;17.68;89.32;101429.34;2571714;30;137179;-41
2021/09/11 19:15:22;;;;;;;8.10;4.68;;;18.90;99.90;;;17.63;89.95;101427.31;2571395;30;137008;-42
2021/09/11 19:17:51;;;;;;;6.57;5.18;;;18.90;99.90;;;17.58;90.95;101434.63;2571881;30;137002;-40
2021/09/11 19:20:19;;;;;;;8.57;5.35;;;18.90;99.90;;;17.51;92.55;101432.84;2570600;30;137345;-40
2021/09/11 19:22:47;;;;;;;7.90;5.43;;;18.70;99.90;;;17.49;92.74;101432.25;2567487;30;139265;-39
2021/09/11 19:25:15;;;;;;;;;;;18.80;99.90;;;17.40;93.87;101436.50;2568075;30;138624;-39
2021/09/11 19:27:43;;;;;;;8.68;5.97;;;18.70;99.90;;;17.39;94.12;101438.41;2566839;30;137354;-39
2021/09/11 19:30:11;;;;;;;;;;;18.70;99.90;;;17.36;94.39;101433.38;2568128;30;136946;-39
2021/09/11 19:32:41;;;;;;;7.82;5.20;;;18.60;99.90;;;17.29;94.90;101438.19;2568884;30;137447;-39
2021/09/11 19:35:10;;;;;;;9.18;6.05;;;18.60;99.90;;;17.22;95.24;101434.72;2566632;30;137423;-39
2021/09/11 19:37:38;;;;;;;8.77;6.35;;;18.50;99.90;;;17.26;96.15;101424.91;2568420;30;138193;-39
2021/09/11 19:40:10;;;;;;;9.63;6.18;;;18.60;99.90;;;17.18;96.26;101430.78;2568013;30;137421;-42
2021/09/11 19:42:38;;;;;;;8.75;6.78;;;18.50;99.90;;;17.10;97.29;101421.81;2569115;30;139325;-41
2021/09/11 19:45:09;;;;;;;;;;;18.40;99.90;;;17.13;98.69;101430.66;2566785;30;137746;-41
2021/09/11 19:47:37;;;;;;;9.82;6.25;;;18.40;99.90;;;17.12;98.12;101429.84;2569088;30;137341;-40
2021/09/11 19:50:06;;;;;;;8.90;6.10;;;18.40;99.90;;;17.06;98.05;101428.88;2568734;30;136682;-41
2021/09/11 19:52:34;;;;;;;8.85;6.07;;;18.40;99.90;;;17.03;98.58;101423.84;2567483;30;139036;-39
2021/09/11 19:55:02;;;;;;;9.43;6.00;;;18.30;99.90;;;17.01;99.13;101428.78;2567357;30;137391;-39
2021/09/11 19:57:30;;;;;;;;;;;18.30;99.90;;;16.97;99.12;101427.53;2568678;30;137055;-39
2021/09/11 19:59:58;;;;;;;7.85;5.78;;;18.20;99.90;;;16.95;99.14;101418.66;2566115;30;136990;-40
2021/09/11 20:02:25;;;;;;;;;;;18.20;99.90;;;16.98;99.51;101421.00;2569117;30;137345;-40
2021/09/11 20:04:53;;;;;;;8.57;6.40;;;18.30;99.90;;;16.96;100.00;101428.59;2568581;30;137103;-40
2021/09/11 20:07:20;;;;;;;8.90;6.00;;;18.20;99.90;;;16.94;100.00;101422.50;2569073;30;138489;-39
2021/09/11 20:09:48;;;;;;;;;;;18.20;99.90;;;16.91;100.00;101434.84;2569260;30;137441;-40
2021/09/11 20:12:15;;;;;;;9.85;5.93;;;18.20;99.90;;;16.90;100.00;101430.41;2567690;30;138323;-40
2021/09/11 20:14:43;;;;;;;9.00;6.22;;;18.20;99.90;;;16.90;100.00;101435.06;2565030;30;138475;-39
2021/09/11 20:17:11;;;;;;;8.98;5.85;;;18.20;99.90;;;16.89;100.00;101434.25;2568383;30;137368;-40
2021/09/11 20:19:38;;;;;;;9.63;6.45;;;18.20;99.90;;;16.87;100.00;101430.06;2567722;30;137071;-39
2021/09/11 20:22:06;;;;;;;;;;;18.10;99.90;;;16.86;100.00;101433.88;2568354;30;137517;-40
2021/09/11 20:24:33;;;;;;;12.50;7.15;;;18.10;99.90;;;16.88;100.00;101427.06;2568067;30;136871;-39
2021/09/11 20:27:01;;;;;;;;;;;18.10;99.90;;;16.89;100.00;101427.91;2568975;30;137568;-40
2021/09/11 20:29:28;;;;;;;8.02;6.13;;;18.20;99.90;;;16.90;100.00;101429.56;2569777;30;137904;-41
2021/09/11 20:31:56;;;;;;;11.00;7.13;;;18.20;99.90;;;16.93;100.00;101431.84;2566207;30;139167;-39
2021/09/11 20:34:23;;;;;;;;;;;18.20;99.90;;;16.90;100.00;101429.56;2569013;30;136912;-39
2021/09/11 20:36:51;;;;;;;10.30;6.95;;;18.20;99.90;;;16.88;100.00;101427.06;2567740;30;138464;-39
2021/09/11 20:39:18;;;;;;;9.93;7.28;;;18.20;99.90;;;16.89;100.00;101428.75;2566940;30;138300;-39
2021/09/11 20:41:46;;;;;;;9.45;6.57;;;18.10;99.90;;;16.88;100.00;101428.97;2566652;30;139327;-40
2021/09/11 20:44:13;;;;;;;11.05;6.43;;;18.10;99.90;;;16.86;100.00;101420.09;2565369;30;137577;-39
2021/09/11 20:46:41;;;;;;;11.48;6.85;;;18.10;99.90;;;16.86;100.00;101423.72;2567018;30;137317;-40
2021/09/11 20:49:09;;;;;;;11.20;7.50;;;18.10;99.90;;;16.83;100.00;101430.53;2568227;30;136865;-41
2021/09/11 20:51:37;;;;;;;11.50;7.22;;;18.10;99.90;;;16.82;100.00;101428.88;2566433;30;137127;-40
2021/09/11 20:54:04;;;;;;;10.90;7.00;;;18.10;99.90;;;16.85;100.00;101418.44;2567970;30;137528;-40
2021/09/11 20:56:32;;;;;;;;;;;18.10;99.90;;;16.85;100.00;101429.47;2566393;30;138948;-40
2021/09/11 20:58:59;;;;;;;10.48;7.00;;;18.10;99.90;;;16.81;100.00;101412.56;2568303;30;138163;-44
2021/09/11 21:01:27;;;;;;;13.65;7.43;;;18.10;99.90;;;16.81;100.00;101429.09;2567667;30;138794;-40
2021/09/11 21:03:55;;;;;;;9.63;7.03;;;18.10;99.90;;;16.80;100.00;101428.25;2567117;30;137661;-39
2021/09/11 21:06:23;;;;;;;11.15;7.30;;;18.10;99.90;;;16.78;100.00;101430.41;2567819;30;138390;-40
2021/09/11 21:08:51;;;;;;;11.75;8.43;;;18.10;99.90;;;16.73;100.00;101430.31;2568188;30;137430;-41
2021/09/11 21:11:18;;;;;;;10.80;6.55;;;18.00;99.90;;;16.71;100.00;101429.72;2567596;30;137203;-41
2021/09/11 21:13:46;;;;;;;10.98;7.38;;;18.00;99.90;;;16.71;100.00;101432.47;2569177;30;136727;-40
2021/09/11 21:16:14;;;;;;;9.75;6.60;;;18.00;99.90;;;16.70;100.00;101435.44;2569352;30;138114;-40
2021/09/11 21:18:42;;;;;;;12.55;7.78;;;18.00;99.90;;;16.73;100.00;101440.47;2567726;30;136976;-40
2021/09/11 21:21:09;;;;;;;12.68;7.60;;;18.00;99.90;;;16.71;100.00;101439.88;2568460;30;137253;-40
2021/09/11 21:23:37;;;;;;;13.10;8.50;;;18.00;99.90;;;16.68;100.00;101433.78;2567330;30;137516;-40
2021/09/11 21:26:05;;;;;;;13.50;8.73;;;17.90;99.90;;;16.68;100.00;101436.53;2567630;30;137424;-42
2021/09/11 21:28:33;;;;;;;13.30;8.60;;;18.00;99.90;;;16.66;100.00;101435.06;2568357;30;137047;-42
2021/09/11 21:31:00;;;;;;;15.35;8.80;;;17.90;99.90;;;16.64;100.00;101442.75;2568400;30;137616;-39
2021/09/11 21:33:28;;;;;;;15.73;9.43;;;17.90;99.90;;;16.64;100.00;101446.34;2565101;30;136948;-39
2021/09/11 21:35:55;;;;;;;12.18;9.13;;;17.90;99.90;;;16.63;100.00;101433.66;2567404;30;137429;-39
2021/09/11 21:38:23;;;;;;;14.93;9.18;;;17.90;99.90;;;16.63;100.00;101435.56;2566856;30;138469;-39
2021/09/11 21:40:51;;;;;;;12.15;7.78;;;17.90;99.90;;;16.61;100.00;101438.56;2568323;30;137494;-40
2021/09/11 21:43:19;;;;;;;13.65;8.18;;;17.90;99.90;;;16.60;100.00;101439.66;2567515;30;136964;-39
2021/09/11 21:45:48;;;;;;;14.13;8.70;;;17.90;99.90;;;16.58;100.00;101429.94;2567451;30;138291;-39
2021/09/11 21:48:15;;;;;;;10.98;8.10;;;17.90;99.90;;;16.56;100.00;101434.84;2568567;30;137026;-40
2021/09/11 21:50:43;;;;;;;10.75;8.35;;;17.80;99.90;;;16.53;100.00;101439.75;2567656;30;137935;-40
2021/09/11 21:53:10;;;;;;;10.40;7.18;;;17.80;99.90;;;16.51;100.00;101436.41;2568254;30;136744;-40
2021/09/11 21:55:38;;;;;;;;;;;17.80;99.90;;;16.52;100.00;101440.81;2567771;30;137305;-41
2021/09/11 21:58:07;;;;;;;10.73;7.45;;;17.80;99.90;;;16.50;100.00;101437.47;2568952;30;136953;-40
2021/09/11 22:00:37;;;;;;;10.57;7.53;;;17.80;99.90;;;16.49;100.00;101441.31;2569057;30;137557;-42
2021/09/11 22:03:06;;;;;;;9.48;6.60;;;17.80;99.90;;;16.48;100.00;101431.38;2567907;30;137598;-40
2021/09/11 22:05:33;;;;;;;9.68;6.75;;;17.80;99.90;;;16.48;100.00;101445.13;2564943;30;138281;-40
2021/09/11 22:08:02;;;;;;;;;;;17.80;99.90;;;16.49;100.00;101437.69;2567601;30;140488;-40
2021/09/11 22:10:30;;;;;;;8.47;6.37;;;17.70;99.90;;;16.46;100.00;101441.78;2566502;30;138685;-39
2021/09/11 22:12:57;;;;;;;10.18;7.53;;;17.70;99.90;;;16.45;100.00;101448.38;2568847;30;137253;-40
2021/09/11 22:15:25;;;;;;;10.40;7.22;;;17.70;99.90;;;16.46;100.00;101457.44;2568286;30;137653;-43
2021/09/11 22:17:53;;;;;;;12.00;8.02;;;17.70;99.90;;;16.44;100.00;101448.59;2567945;30;136887;-41
2021/09/11 22:20:21;;;;;;;;;;;17.70;99.90;;;16.43;100.00;101457.94;2564974;30;137572;-40
2021/09/11 22:22:49;;;;;;;9.57;6.88;;;17.70;99.90;;;16.44;100.00;101454.91;2566766;30;136987;-40
2021/09/11 22:25:18;;;;;;;11.02;7.00;;;17.70;99.90;;;16.43;100.00;101447.75;2569388;30;137108;-39
2021/09/11 22:27:48;;;;;;;10.27;7.25;;;17.70;99.90;;;16.43;100.00;101447.75;2568197;30;137313;-41
2021/09/11 22:30:16;;;;;;;10.40;7.47;;;17.70;99.90;;;16.44;100.00;101451.34;2569338;30;137534;-40
2021/09/11 22:32:45;;;;;;;11.38;6.88;;;17.70;99.90;;;16.43;100.00;101447.75;2567221;30;136861;-40
2021/09/11 22:35:14;;;;;;;11.98;7.60;;;17.70;99.90;;;16.44;100.00;101454.09;2568520;30;138390;-39
2021/09/11 22:37:43;;;;;;;11.93;7.63;;;17.70;99.90;;;16.43;100.00;101447.75;2567135;30;137586;-39
2021/09/11 22:40:12;;;;;;;11.75;7.60;;;17.70;99.90;;;16.43;100.00;101447.75;2567203;30;139151;-43
2021/09/11 22:42:45;;;;;;;12.93;8.32;;;17.70;99.90;;;16.44;100.00;101446.66;2568338;30;137487;-39
2021/09/11 22:45:14;;;;;;;14.05;7.63;;;17.70;99.90;;;16.42;100.00;101448.00;2568698;30;137381;-40
2021/09/11 22:47:41;;;;;;;9.73;6.95;;;17.70;99.90;;;16.38;100.00;101439.34;2566020;30;136739;-40
2021/09/11 22:50:10;;;;;;;10.80;7.45;;;17.70;99.90;;;16.41;100.00;101443.56;2567332;30;137919;-40
2021/09/11 22:52:38;;;;;;;10.88;7.53;;;17.70;99.90;;;16.36;100.00;101433.25;2566077;30;136773;-39
2021/09/11 22:55:07;;;;;;;;;;;17.70;99.90;;;16.41;100.00;101447.13;2567683;30;138213;-39
2021/09/11 22:57:35;;;;;;;11.35;7.32;;;17.70;99.90;;;16.40;100.00;101442.72;2569682;30;136937;-40
2021/09/11 23:00:06;;;;;;;;;;;17.70;99.90;;;16.41;100.00;101441.63;2568635;30;137480;-40
2021/09/11 23:02:34;;;;;;;9.45;6.60;;;17.70;99.90;;;16.40;100.00;101439.94;2569129;30;137242;-41
2021/09/11 23:05:03;;;;;;;10.95;7.47;;;17.70;99.90;;;16.41;100.00;101441.63;2568282;30;138600;-40
2021/09/11 23:07:30;;;;;;;13.50;8.32;;;17.70;99.90;;;16.41;100.00;101449.06;2566191;30;138338;-40
2021/09/11 23:09:58;;;;;;;10.77;7.60;;;17.70;99.90;;;16.41;100.00;101446.31;2568105;30;138008;-41
2021/09/11 23:12:25;;;;;;;11.85;8.02;;;17.70;99.90;;;16.43;100.00;101441.41;2567212;30;136939;-39
2021/09/11 23:14:53;;;;;;;13.25;9.20;;;17.70;99.90;;;16.45;100.00;101451.13;2567642;30;138023;-39
2021/09/11 23:17:20;;;;;;;13.20;8.15;;;17.70;99.90;;;16.45;100.00;101444.75;2569062;30;137622;-40
2021/09/11 23:19:48;;;;;;;10.77;8.27;;;17.70;99.90;;;16.46;100.00;101444.53;2568787;30;137199;-43
2021/09/11 23:22:15;;;;;;;;;;;17.70;99.90;;;16.45;100.00;101442.84;2568737;30;137611;-39
2021/09/11 23:24:43;;;;;;;12.15;7.45;;;17.70;99.90;;;16.44;100.00;101441.16;2568101;30;138242;-39
2021/09/11 23:27:11;;;;;;;10.30;7.53;;;17.70;99.90;;;16.43;100.00;101438.66;2568757;30;137462;-40
2021/09/11 23:29:38;;;;;;;11.68;7.55;;;17.70;99.90;;;16.41;100.00;101438.88;2565656;30;137456;-40
2021/09/11 23:32:07;;;;;;;10.70;7.63;;;17.70;99.90;;;16.38;100.00;101431.94;2568022;30;137817;-40
2021/09/11 23:34:34;;;;;;;13.68;7.95;;;17.70;99.90;;;16.39;100.00;101436.38;2567239;30;138234;-40
2021/09/11 23:37:02;;;;;;;10.43;7.15;;;17.70;99.90;;;16.37;100.00;101434.91;2568814;30;136812;-40
2021/09/11 23:39:30;;;;;;;11.35;8.20;;;17.70;99.90;;;16.37;100.00;101441.28;2564945;30;137743;-40
2021/09/11 23:41:57;;;;;;;14.27;8.77;;;17.60;99.90;;;16.37;100.00;101434.91;2567540;30;138307;-42
2021/09/11 23:44:25;;;;;;;10.80;7.53;;;17.70;99.90;;;16.36;100.00;101436.84;2567501;30;138469;-40
2021/09/11 23:46:52;;;;;;;11.10;6.97;;;17.60;99.90;;;16.36;100.00;101434.09;2568837;30;136818;-40
2021/09/11 23:49:20;;;;;;;11.57;7.78;;;17.60;99.90;;;16.34;100.00;101444.50;2568058;30;136766;-41
2021/09/11 23:51:47;;;;;;;13.07;8.32;;;17.60;99.90;;;16.34;100.00;101432.66;2567404;30;137618;-40
2021/09/11 23:54:15;;;;;;;11.45;7.75;;;17.60;99.90;;;16.33;100.00;101436.47;2568146;30;137375;-46
2021/09/11 23:56:42;;;;;;;11.18;7.65;;;17.60;99.90;;;16.32;100.00;101432.03;2567871;30;137165;-40
2021/09/11 23:59:10;;;;;;;10.85;7.97;;;17.60;99.90;;;16.32;100.00;101429.28;2567401;30;138273;-42
